Time;durP1;ratioP1;P1;durP2;ratioP2;P2;SDS_P1;SDS_P2;PMS_P1;PMS_P2;Temp;Humidity;BMP_temperature;BMP_pressure;BME280_temperature;BME280_humidity;BME280_pressure;Samples;Min_cycle;Max_cycle;Signal;HPM_P1;HPM_P2
2023/04/23 00:01:52;;;;;;;6.18;1.55;;;;;;;;;;5007529;28;20045;-74
2023/04/23 00:04:27;;;;;;;4.00;1.58;;;;;;;;;;5006652;28;20055;-74
2023/04/23 00:06:59;;;;;;;9.73;2.08;;;;;;;;;;5007838;28;20060;-73
2023/04/23 00:09:31;;;;;;;6.75;1.52;;;;;;;;;;5007730;28;20509;-74
2023/04/23 00:12:06;;;;;;;5.18;1.65;;;;;;;;;;4990418;28;20528;-74
2023/04/23 00:14:38;;;;;;;8.05;1.42;;;;;;;;;;5007765;28;20547;-73
2023/04/23 00:17:10;;;;;;;2.92;1.00;;;;;;;;;;5008046;28;20056;-73
2023/04/23 00:19:41;;;;;;;5.43;1.42;;;;;;;;;;4990508;28;20064;-74
2023/04/23 00:22:19;;;;;;;5.05;1.83;;;;;;;;;;5007424;28;20526;-73
2023/04/23 00:24:51;;;;;;;5.15;1.52;;;;;;;;;;5007048;28;20611;-73
2023/04/23 00:27:23;;;;;;;2.85;1.30;;;;;;;;;;5007394;28;20493;-73
2023/04/23 00:29:54;;;;;;;3.97;1.70;;;;;;;;;;5007657;28;20037;-73
2023/04/23 00:32:35;;;;;;;3.08;1.33;;;;;;;;;;5006530;28;20053;-73
2023/04/23 00:35:09;;;;;;;4.60;1.55;;;;;;;;;;5006251;28;20057;-73
2023/04/23 00:37:41;;;;;;;2.72;1.67;;;;;;;;;;5007602;28;20077;-76
2023/04/23 00:40:13;;;;;;;5.20;1.60;;;;;;;;;;5007042;28;20057;-73
2023/04/23 00:42:52;;;;;;;10.10;1.90;;;;;;;;;;5007097;28;20065;-73
2023/04/23 00:45:24;;;;;;;5.05;1.73;;;;;;;;;;4988507;28;20065;-73
2023/04/23 00:47:58;;;;;;;4.35;1.50;;;;;;;;;;4989057;28;20072;-75
2023/04/23 00:50:29;;;;;;;5.63;2.13;;;;;;;;;;5006758;28;20045;-74
2023/04/23 00:53:01;;;;;;;6.78;2.08;;;;;;;;;;5006685;28;20118;-81
2023/04/23 00:55:33;;;;;;;6.00;1.75;;;;;;;;;;5006565;28;20053;-71
2023/04/23 00:58:05;;;;;;;5.78;1.80;;;;;;;;;;4988155;28;20057;-76
2023/04/23 01:00:50;;;;;;;4.32;1.77;;;;;;;;;;5007095;28;20045;-75
2023/04/23 01:03:24;;;;;;;3.72;1.48;;;;;;;;;;5006622;28;20050;-75
2023/04/23 01:06:00;;;;;;;6.28;1.92;;;;;;;;;;5007117;28;20147;-72
2023/04/23 01:08:32;;;;;;;9.68;1.55;;;;;;;;;;5006480;28;20045;-74
2023/04/23 01:11:05;;;;;;;3.75;1.83;;;;;;;;;;5006602;28;20041;-75
2023/04/23 01:13:39;;;;;;;3.67;1.73;;;;;;;;;;4988287;28;20054;-77
2023/04/23 01:16:11;;;;;;;5.35;1.90;;;;;;;;;;5006196;28;20049;-75
2023/04/23 01:18:47;;;;;;;6.32;1.50;;;;;;;;;;4987664;28;20053;-74
2023/04/23 01:21:21;;;;;;;7.03;2.00;;;;;;;;;;5006640;28;20037;-73
2023/04/23 01:23:53;;;;;;;3.03;1.85;;;;;;;;;;5006619;28;20053;-76
2023/04/23 01:26:24;;;;;;;7.68;1.80;;;;;;;;;;5006053;28;20046;-74
2023/04/23 01:28:57;;;;;;;4.30;1.60;;;;;;;;;;5000832;28;20387;-75
2023/04/23 01:31:31;;;;;;;2.97;1.60;;;;;;;;;;4972926;28;20057;-74
2023/04/23 01:34:04;;;;;;;4.60;1.40;;;;;;;;;;4984749;28;20060;-74
2023/04/23 01:36:36;;;;;;;9.50;1.60;;;;;;;;;;4986375;28;20045;-78
2023/04/23 01:39:08;;;;;;;4.57;1.65;;;;;;;;;;4986328;28;20485;-77
2023/04/23 01:41:43;;;;;;;6.10;1.52;;;;;;;;;;4986989;28;20062;-74
2023/04/23 01:44:19;;;;;;;3.35;1.70;;;;;;;;;;4986653;28;20054;-73
2023/04/23 01:46:51;;;;;;;2.95;1.80;;;;;;;;;;4985863;28;20065;-76
2023/04/23 01:49:32;;;;;;;6.10;1.95;;;;;;;;;;4985753;28;20065;-76
2023/04/23 01:52:03;;;;;;;3.72;1.83;;;;;;;;;;4986311;28;20050;-73
2023/04/23 01:54:36;;;;;;;3.47;1.80;;;;;;;;;;4986358;28;20057;-71
2023/04/23 01:57:08;;;;;;;7.13;1.65;;;;;;;;;;4987365;28;20425;-74
2023/04/23 01:59:42;;;;;;;4.07;1.58;;;;;;;;;;4987641;28;20058;-75
2023/04/23 02:02:14;;;;;;;6.07;1.58;;;;;;;;;;4986099;28;20510;-76
2023/04/23 02:04:47;;;;;;;7.40;1.70;;;;;;;;;;4985701;28;20362;-76
2023/04/23 02:07:18;;;;;;;5.75;1.77;;;;;;;;;;4968059;28;20073;-75
2023/04/23 02:09:48;;;;;;;7.82;1.73;;;;;;;;;;4967240;28;20085;-74
2023/04/23 02:12:19;;;;;;;4.90;1.88;;;;;;;;;;4985439;28;20541;-77
2023/04/23 02:14:52;;;;;;;5.82;2.08;;;;;;;;;;4952788;28;20553;-73
2023/04/23 02:17:23;;;;;;;7.57;1.70;;;;;;;;;;4986205;28;20050;-75
2023/04/23 02:19:54;;;;;;;4.22;1.42;;;;;;;;;;4985880;28;20058;-73
2023/04/23 02:22:25;;;;;;;4.32;1.05;;;;;;;;;;4985436;28;20050;-74
2023/04/23 02:24:57;;;;;;;6.28;1.35;;;;;;;;;;4971385;28;20505;-74
2023/04/23 02:27:27;;;;;;;4.65;1.50;;;;;;;;;;5004632;28;20041;-76
2023/04/23 02:29:57;;;;;;;3.88;1.48;;;;;;;;;;5005761;28;20045;-77
2023/04/23 02:32:29;;;;;;;4.47;1.50;;;;;;;;;;5005580;28;20081;-74
2023/04/23 02:35:01;;;;;;;5.50;1.60;;;;;;;;;;4987694;28;20050;-75
2023/04/23 02:37:32;;;;;;;4.03;1.58;;;;;;;;;;5004487;28;20053;-74
2023/04/23 02:40:06;;;;;;;2.72;1.63;;;;;;;;;;5004797;28;20042;-75
2023/04/23 02:42:37;;;;;;;5.40;1.40;;;;;;;;;;5004881;28;20054;-73
2023/04/23 02:45:10;;;;;;;2.78;1.42;;;;;;;;;;5005031;28;20070;-74
2023/04/23 02:47:42;;;;;;;1.42;1.33;;;;;;;;;;5005372;28;20050;-73
2023/04/23 02:50:16;;;;;;;3.30;1.20;;;;;;;;;;5005391;28;20042;-76
2023/04/23 02:52:47;;;;;;;4.55;1.60;;;;;;;;;;5004877;28;20053;-73
2023/04/23 02:55:19;;;;;;;1.67;1.17;;;;;;;;;;5002889;28;20406;-75
2023/04/23 02:57:50;;;;;;;4.65;1.20;;;;;;;;;;5003116;28;20054;-77
2023/04/23 03:00:20;;;;;;;4.00;1.20;;;;;;;;;;5007455;28;20057;-78
2023/04/23 03:02:51;;;;;;;3.80;1.20;;;;;;;;;;4991647;28;20050;-73
2023/04/23 03:05:23;;;;;;;5.25;1.50;;;;;;;;;;5007564;28;20050;-74
2023/04/23 03:07:53;;;;;;;2.30;1.27;;;;;;;;;;5009048;28;20045;-73
2023/04/23 03:10:23;;;;;;;4.90;1.58;;;;;;;;;;5007092;28;20057;-78
2023/04/23 03:12:53;;;;;;;2.08;1.15;;;;;;;;;;5006601;28;20088;-73
2023/04/23 03:15:26;;;;;;;4.85;1.27;;;;;;;;;;5006280;28;20061;-72
2023/04/23 03:17:58;;;;;;;4.97;1.50;;;;;;;;;;5008778;28;20417;-72
2023/04/23 03:20:29;;;;;;;6.18;1.27;;;;;;;;;;5007035;28;20500;-75
2023/04/23 03:23:01;;;;;;;3.17;1.17;;;;;;;;;;5008938;28;20493;-73
2023/04/23 03:25:32;;;;;;;2.25;1.05;;;;;;;;;;5007333;28;20497;-74
2023/04/23 03:28:02;;;;;;;5.43;1.40;;;;;;;;;;5008029;28;20111;-74
2023/04/23 03:30:34;;;;;;;8.30;1.25;;;;;;;;;;5006997;28;20541;-75
2023/04/23 03:33:06;;;;;;;3.47;1.27;;;;;;;;;;5007099;28;20062;-74
2023/04/23 03:35:39;;;;;;;2.78;1.30;;;;;;;;;;5008343;28;20758;-76
2023/04/23 03:38:15;;;;;;;1.75;1.10;;;;;;;;;;5006646;28;20683;-73
2023/04/23 03:40:45;;;;;;;6.18;1.25;;;;;;;;;;5006700;28;20077;-74
2023/04/23 03:43:17;;;;;;;4.13;1.25;;;;;;;;;;5006839;28;20049;-74
2023/04/23 03:46:10;;;;;;;2.00;1.00;;;;;;;;;;5007873;28;20057;-75
2023/04/23 03:48:43;;;;;;;7.25;1.10;;;;;;;;;;5006513;28;20061;-76
2023/04/23 03:51:22;;;;;;;4.97;1.40;;;;;;;;;;4992020;28;20053;-74
2023/04/23 03:53:52;;;;;;;3.05;1.00;;;;;;;;;;5008345;28;20061;-75
2023/04/23 03:56:44;;;;;;;4.93;1.13;;;;;;;;;;5006682;28;20045;-72
2023/04/23 03:59:22;;;;;;;5.07;1.50;;;;;;;;;;5006474;28;20057;-71
2023/04/23 04:01:55;;;;;;;3.25;1.33;;;;;;;;;;4990772;28;20054;-71
2023/04/23 04:04:28;;;;;;;2.70;1.40;;;;;;;;;;5006085;28;20049;-74
2023/04/23 04:07:00;;;;;;;2.38;1.30;;;;;;;;;;5007857;28;20054;-72
2023/04/23 04:09:30;;;;;;;1.20;1.10;;;;;;;;;;5006208;28;20058;-75
2023/04/23 04:12:02;;;;;;;4.60;1.65;;;;;;;;;;5005757;28;20070;-75
2023/04/23 04:14:34;;;;;;;2.40;1.50;;;;;;;;;;5008084;28;20053;-72
2023/04/23 04:17:06;;;;;;;4.38;1.30;;;;;;;;;;5007609;28;20045;-75
2023/04/23 04:19:37;;;;;;;7.03;1.38;;;;;;;;;;5007316;28;20505;-72
2023/04/23 04:22:09;;;;;;;2.10;1.35;;;;;;;;;;5007232;28;20073;-73
2023/04/23 04:24:40;;;;;;;4.80;1.60;;;;;;;;;;5006186;28;20052;-73
2023/04/23 04:27:11;;;;;;;3.58;1.40;;;;;;;;;;4987798;28;20055;-74
2023/04/23 04:29:41;;;;;;;2.70;1.33;;;;;;;;;;4988224;28;20051;-74
2023/04/23 04:32:12;;;;;;;4.20;1.60;;;;;;;;;;4987606;28;20054;-74
2023/04/23 04:34:43;;;;;;;6.00;1.70;;;;;;;;;;4987187;28;20053;-73
2023/04/23 04:37:15;;;;;;;4.85;1.85;;;;;;;;;;4970288;28;20049;-74
2023/04/23 04:39:45;;;;;;;5.90;1.70;;;;;;;;;;4988019;28;20042;-75
2023/04/23 04:42:15;;;;;;;1.70;1.10;;;;;;;;;;4987684;28;20505;-72
2023/04/23 04:44:45;;;;;;;2.08;1.30;;;;;;;;;;4969909;28;20528;-72
2023/04/23 04:47:17;;;;;;;3.10;1.50;;;;;;;;;;4987841;28;20061;-74
2023/04/23 04:49:49;;;;;;;2.53;1.20;;;;;;;;;;4987249;28;20050;-74
2023/04/23 04:52:18;;;;;;;2.33;1.77;;;;;;;;;;4987152;28;20050;-77
2023/04/23 04:54:49;;;;;;;5.32;1.50;;;;;;;;;;4987203;28;20493;-73
2023/04/23 04:57:21;;;;;;;2.78;1.48;;;;;;;;;;4987458;28;20493;-72
2023/04/23 04:59:53;;;;;;;5.53;1.77;;;;;;;;;;4987523;28;20054;-74
2023/04/23 05:02:23;;;;;;;1.25;1.10;;;;;;;;;;4987700;28;20512;-75
2023/04/23 05:04:54;;;;;;;3.15;1.50;;;;;;;;;;4987063;28;20046;-77
2023/04/23 05:07:24;;;;;;;2.65;1.48;;;;;;;;;;4986959;28;20587;-76
2023/04/23 05:09:55;;;;;;;3.92;2.22;;;;;;;;;;4986955;28;20054;-75
2023/04/23 05:12:26;;;;;;;2.70;1.55;;;;;;;;;;4986831;28;20073;-73
2023/04/23 05:14:56;;;;;;;2.03;1.58;;;;;;;;;;4969927;28;20058;-73
2023/04/23 05:17:27;;;;;;;6.15;1.95;;;;;;;;;;4987149;28;20061;-71
2023/04/23 05:19:57;;;;;;;2.55;1.58;;;;;;;;;;4970020;28;20122;-75
2023/04/23 05:22:29;;;;;;;3.17;1.48;;;;;;;;;;4986413;28;20413;-76
2023/04/23 05:24:59;;;;;;;4.25;1.60;;;;;;;;;;4986791;28;20493;-73
2023/04/23 05:27:29;;;;;;;3.42;1.80;;;;;;;;;;4986662;28;20069;-73
2023/04/23 05:30:01;;;;;;;2.15;1.27;;;;;;;;;;4986091;28;20054;-73
2023/04/23 05:32:32;;;;;;;1.83;1.30;;;;;;;;;;4987141;28;20046;-76
2023/04/23 05:35:03;;;;;;;2.55;1.63;;;;;;;;;;4987185;28;20043;-77
2023/04/23 05:37:34;;;;;;;2.75;1.60;;;;;;;;;;4986561;28;20402;-72
2023/04/23 05:40:06;;;;;;;4.10;1.30;;;;;;;;;;4986009;28;20046;-75
2023/04/23 05:42:37;;;;;;;3.35;1.75;;;;;;;;;;4986302;28;20390;-73
2023/04/23 05:45:08;;;;;;;2.38;1.50;;;;;;;;;;4986289;28;20413;-77
2023/04/23 05:47:38;;;;;;;3.28;1.40;;;;;;;;;;4986326;28;20053;-73
2023/04/23 05:50:10;;;;;;;7.22;1.23;;;;;;;;;;4986576;28;20042;-73
2023/04/23 05:52:41;;;;;;;1.25;1.00;;;;;;;;;;4986178;28;20046;-73
2023/04/23 05:55:14;;;;;;;1.52;1.30;;;;;;;;;;4986127;28;20544;-72
2023/04/23 05:57:46;;;;;;;2.67;1.63;;;;;;;;;;4985631;28;20050;-78
2023/04/23 06:00:18;;;;;;;2.97;1.50;;;;;;;;;;4986274;28;20501;-74
2023/04/23 06:02:48;;;;;;;4.22;1.83;;;;;;;;;;4986275;28;20509;-75
2023/04/23 06:05:19;;;;;;;2.95;1.30;;;;;;;;;;4985938;28;20532;-74
2023/04/23 06:07:50;;;;;;;2.38;1.27;;;;;;;;;;4986510;28;20046;-77
2023/04/23 06:10:20;;;;;;;;;;;;;;;;;;4986376;28;20505;-71
2023/04/23 06:12:50;;;;;;;3.60;1.48;;;;;;;;;;4986085;28;19929;-73
2023/04/23 06:15:21;;;;;;;2.63;1.63;;;;;;;;;;4986227;28;20061;-75
2023/04/23 06:17:53;;;;;;;2.70;1.70;;;;;;;;;;4986100;28;20042;-73
2023/04/23 06:20:23;;;;;;;3.47;1.33;;;;;;;;;;4986362;28;20042;-76
2023/04/23 06:22:54;;;;;;;3.78;1.30;;;;;;;;;;4967852;28;20054;-72
2023/04/23 06:25:24;;;;;;;3.70;1.67;;;;;;;;;;4985704;28;20055;-75
2023/04/23 06:27:56;;;;;;;4.45;2.35;;;;;;;;;;4986025;28;20050;-75
2023/04/23 06:30:30;;;;;;;5.68;1.95;;;;;;;;;;4968020;28;20058;-77
2023/04/23 06:33:02;;;;;;;5.07;2.03;;;;;;;;;;4985776;28;20105;-74
2023/04/23 06:35:32;;;;;;;5.22;2.10;;;;;;;;;;4985168;28;20413;-74
2023/04/23 06:38:03;;;;;;;3.30;1.55;;;;;;;;;;4985908;28;20054;-71
2023/04/23 06:40:33;;;;;;;3.88;1.48;;;;;;;;;;4985784;28;20054;-74
2023/04/23 06:43:04;;;;;;;3.83;1.40;;;;;;;;;;4986100;28;20065;-72
2023/04/23 06:45:51;;;;;;;3.90;1.70;;;;;;;;;;4967671;28;20544;-73
2023/04/23 06:48:21;;;;;;;3.17;1.50;;;;;;;;;;4968258;28;20058;-74
2023/04/23 06:50:51;;;;;;;3.95;1.83;;;;;;;;;;4985585;28;20050;-73
2023/04/23 06:53:22;;;;;;;5.85;1.80;;;;;;;;;;4985717;28;20062;-76
2023/04/23 06:55:52;;;;;;;5.82;1.90;;;;;;;;;;4985494;28;20038;-75
2023/04/23 06:58:29;;;;;;;3.60;2.08;;;;;;;;;;4985649;28;20062;-74
2023/04/23 07:01:06;;;;;;;5.47;1.90;;;;;;;;;;4967739;28;20517;-74
2023/04/23 07:03:37;;;;;;;4.72;2.05;;;;;;;;;;4967673;28;20051;-70
2023/04/23 07:06:10;;;;;;;6.13;1.55;;;;;;;;;;4985638;28;20061;-71
2023/04/23 07:08:40;;;;;;;6.30;2.20;;;;;;;;;;4985184;28;20054;-74
2023/04/23 07:11:11;;;;;;;2.00;1.50;;;;;;;;;;4985471;28;20409;-78
2023/04/23 07:13:42;;;;;;;4.15;2.10;;;;;;;;;;4967872;28;20058;-70
2023/04/23 07:16:13;;;;;;;2.78;2.15;;;;;;;;;;4985570;28;20050;-73
2023/04/23 07:18:43;;;;;;;2.17;1.60;;;;;;;;;;4985264;28;20054;-74
2023/04/23 07:21:13;;;;;;;3.70;1.90;;;;;;;;;;4985027;28;20057;-73
2023/04/23 07:23:43;;;;;;;8.63;2.33;;;;;;;;;;4985528;28;20404;-72
2023/04/23 07:26:15;;;;;;;3.00;2.03;;;;;;;;;;4985294;28;20421;-76
2023/04/23 07:28:47;;;;;;;3.03;1.90;;;;;;;;;;4985243;28;20049;-73
2023/04/23 07:31:22;;;;;;;6.75;2.60;;;;;;;;;;4985633;28;20057;-74
2023/04/23 07:33:52;;;;;;;2.92;2.05;;;;;;;;;;4985335;28;20042;-74
2023/04/23 07:36:23;;;;;;;5.70;2.33;;;;;;;;;;4985109;28;20051;-73
2023/04/23 07:38:54;;;;;;;3.55;2.35;;;;;;;;;;4984906;28;20054;-75
2023/04/23 07:41:24;;;;;;;4.78;2.45;;;;;;;;;;4985129;28;20054;-78
2023/04/23 07:43:55;;;;;;;4.82;2.38;;;;;;;;;;4985335;28;20524;-77
2023/04/23 07:46:31;;;;;;;3.75;2.22;;;;;;;;;;4970313;28;20050;-74
2023/04/23 07:49:02;;;;;;;4.32;2.47;;;;;;;;;;4989160;28;20046;-74
2023/04/23 07:51:32;;;;;;;5.10;2.85;;;;;;;;;;4971502;28;20054;-74
2023/04/23 07:54:02;;;;;;;7.05;2.50;;;;;;;;;;4988426;28;20061;-71
2023/04/23 07:56:32;;;;;;;3.92;2.58;;;;;;;;;;4988615;28;20050;-76
2023/04/23 07:59:06;;;;;;;8.38;2.92;;;;;;;;;;4988587;28;20054;-74
2023/04/23 08:01:36;;;;;;;5.53;2.58;;;;;;;;;;4988172;28;20053;-72
2023/04/23 08:04:06;;;;;;;5.00;2.97;;;;;;;;;;4988462;28;20046;-74
2023/04/23 08:06:37;;;;;;;10.48;3.60;;;;;;;;;;4988055;28;20054;-75
2023/04/23 08:09:08;;;;;;;6.38;2.78;;;;;;;;;;4987773;28;20042;-72
2023/04/23 08:11:38;;;;;;;5.75;3.13;;;;;;;;;;4970869;28;20077;-73
2023/04/23 08:14:08;;;;;;;6.40;3.25;;;;;;;;;;4988186;28;20431;-75
2023/04/23 08:16:37;;;;;;;;;;;;;;;;;;4988838;28;20050;-71
2023/04/23 08:19:08;;;;;;;7.20;3.55;;;;;;;;;;4970115;28;20297;-74
2023/04/23 08:21:40;;;;;;;5.53;3.53;;;;;;;;;;4970485;28;20423;-71
2023/04/23 08:24:10;;;;;;;8.15;3.60;;;;;;;;;;4987835;28;20049;-74
2023/04/23 08:26:42;;;;;;;6.10;3.15;;;;;;;;;;5002666;28;20072;-74
2023/04/23 08:29:12;;;;;;;5.05;3.40;;;;;;;;;;5007927;28;20050;-77
2023/04/23 08:31:42;;;;;;;5.40;3.28;;;;;;;;;;5007149;28;20046;-76
2023/04/23 08:34:14;;;;;;;5.93;2.58;;;;;;;;;;5006595;28;20053;-76
2023/04/23 08:36:45;;;;;;;5.18;2.97;;;;;;;;;;5007331;28;20500;-72
2023/04/23 08:39:16;;;;;;;6.25;3.22;;;;;;;;;;5007722;28;20050;-73
2023/04/23 08:41:48;;;;;;;;;;;;;;;;;;5007859;28;20052;-72
2023/04/23 08:44:24;;;;;;;4.72;2.72;;;;;;;;;;5006806;28;19929;-74
2023/04/23 08:46:56;;;;;;;5.55;2.88;;;;;;;;;;5007135;28;20056;-74
2023/04/23 08:49:32;;;;;;;5.75;2.55;;;;;;;;;;5007236;28;20061;-71
2023/04/23 08:52:23;;;;;;;6.75;2.97;;;;;;;;;;5007274;28;20056;-74
2023/04/23 08:54:58;;;;;;;5.20;3.53;;;;;;;;;;5006968;28;20053;-75
2023/04/23 08:57:30;;;;;;;5.95;2.67;;;;;;;;;;5004723;28;20050;-76
2023/04/23 09:00:05;;;;;;;4.57;2.97;;;;;;;;;;5006817;28;20045;-74
2023/04/23 09:02:37;;;;;;;8.48;3.45;;;;;;;;;;5006841;28;20064;-73
2023/04/23 09:05:08;;;;;;;6.45;3.30;;;;;;;;;;5006851;28;20408;-73
2023/04/23 09:07:38;;;;;;;7.90;3.00;;;;;;;;;;5007328;28;20042;-72
2023/04/23 09:10:11;;;;;;;6.40;3.05;;;;;;;;;;5007161;28;20054;-72
2023/04/23 09:12:44;;;;;;;4.97;2.97;;;;;;;;;;5006691;28;20049;-73
2023/04/23 09:15:14;;;;;;;4.43;2.80;;;;;;;;;;5006364;28;20068;-75
2023/04/23 09:17:46;;;;;;;4.07;2.83;;;;;;;;;;5006475;28;20054;-74
2023/04/23 09:20:17;;;;;;;14.18;3.55;;;;;;;;;;5005382;28;20057;-76
2023/04/23 09:22:48;;;;;;;5.80;3.55;;;;;;;;;;5004843;28;20061;-75
2023/04/23 09:25:22;;;;;;;9.73;3.10;;;;;;;;;;4999920;28;20046;-75
2023/04/23 09:27:54;;;;;;;5.38;2.40;;;;;;;;;;4969335;28;20069;-73
2023/04/23 09:30:26;;;;;;;6.97;3.20;;;;;;;;;;4986452;28;20105;-74
2023/04/23 09:32:57;;;;;;;9.48;4.00;;;;;;;;;;4986601;28;20509;-72
2023/04/23 09:35:28;;;;;;;4.25;2.58;;;;;;;;;;4986323;28;20050;-72
2023/04/23 09:37:58;;;;;;;4.10;2.55;;;;;;;;;;4987157;28;20053;-69
2023/04/23 09:40:28;;;;;;;6.07;3.22;;;;;;;;;;4987288;28;20045;-71
2023/04/23 09:42:58;;;;;;;5.95;3.10;;;;;;;;;;4969058;28;20054;-73
2023/04/23 09:45:28;;;;;;;6.05;3.22;;;;;;;;;;4986343;28;20053;-72
2023/04/23 09:47:59;;;;;;;4.53;3.10;;;;;;;;;;4969045;28;20050;-74
2023/04/23 09:50:40;;;;;;;5.68;3.60;;;;;;;;;;4986273;28;20046;-75
2023/04/23 09:53:13;;;;;;;4.90;2.92;;;;;;;;;;4986374;28;20524;-72
2023/04/23 09:55:44;;;;;;;4.55;3.03;;;;;;;;;;4986505;28;20038;-69
2023/04/23 09:58:16;;;;;;;3.92;3.03;;;;;;;;;;4969340;28;21147;-74
2023/04/23 10:00:47;;;;;;;6.75;3.28;;;;;;;;;;4986348;28;20061;-76
2023/04/23 10:03:26;;;;;;;4.78;3.10;;;;;;;;;;4986078;28;20454;-76
2023/04/23 10:05:58;;;;;;;6.50;2.55;;;;;;;;;;4986073;28;20505;-71
2023/04/23 10:08:32;;;;;;;9.25;3.13;;;;;;;;;;4986004;28;20050;-74
2023/04/23 10:11:03;;;;;;;4.57;3.15;;;;;;;;;;4985807;28;20050;-73
2023/04/23 10:13:48;;;;;;;5.28;3.70;;;;;;;;;;4986068;28;20386;-71
2023/04/23 10:16:21;;;;;;;3.75;2.38;;;;;;;;;;4985698;28;20050;-75
2023/04/23 10:19:00;;;;;;;5.20;3.03;;;;;;;;;;4985686;28;20054;-74
2023/04/23 10:21:32;;;;;;;9.63;3.17;;;;;;;;;;4968411;28;20081;-73
2023/04/23 10:24:20;;;;;;;3.58;2.60;;;;;;;;;;4985654;28;20057;-71
2023/04/23 10:26:52;;;;;;;6.45;3.28;;;;;;;;;;4985803;28;20065;-70
2023/04/23 10:29:30;;;;;;;4.50;3.08;;;;;;;;;;4985972;28;20058;-73
2023/04/23 10:32:06;;;;;;;5.32;3.25;;;;;;;;;;4985951;28;20043;-74
2023/04/23 10:34:38;;;;;;;4.57;3.20;;;;;;;;;;4985667;28;20069;-75
2023/04/23 10:37:10;;;;;;;7.05;2.80;;;;;;;;;;4985401;28;20150;-73
2023/04/23 10:39:45;;;;;;;4.13;2.90;;;;;;;;;;4985767;28;20056;-73
2023/04/23 10:42:17;;;;;;;11.40;3.38;;;;;;;;;;4985939;28;20046;-75
2023/04/23 10:44:47;;;;;;;6.25;3.95;;;;;;;;;;4985845;28;20061;-74
2023/04/23 10:47:21;;;;;;;7.88;4.25;;;;;;;;;;4967852;28;20070;-72
2023/04/23 10:49:53;;;;;;;12.88;3.95;;;;;;;;;;4985970;28;20057;-75
2023/04/23 10:52:25;;;;;;;10.45;3.90;;;;;;;;;;4968293;28;20054;-74
2023/04/23 10:54:58;;;;;;;7.03;4.45;;;;;;;;;;4986342;28;20061;-70
2023/04/23 10:57:29;;;;;;;6.60;4.30;;;;;;;;;;4985712;28;20049;-76
2023/04/23 11:00:03;;;;;;;6.90;3.50;;;;;;;;;;4994885;28;20050;-74
2023/04/23 11:02:45;;;;;;;7.05;4.13;;;;;;;;;;4994450;28;20039;-76
2023/04/23 11:05:17;;;;;;;6.60;4.07;;;;;;;;;;4995171;28;20050;-73
2023/04/23 11:08:07;;;;;;;6.15;3.63;;;;;;;;;;4993397;28;20055;-72
2023/04/23 11:10:58;;;;;;;10.68;4.88;;;;;;;;;;4994959;28;20043;-72
2023/04/23 11:13:29;;;;;;;8.10;3.60;;;;;;;;;;4995472;28;20045;-74
2023/04/23 11:16:22;;;;;;;7.53;3.08;;;;;;;;;;4997630;28;20072;-75
2023/04/23 11:19:02;;;;;;;3.85;2.90;;;;;;;;;;5005039;28;20046;-72
2023/04/23 11:21:59;;;;;;;5.18;2.90;;;;;;;;;;5008548;28;20085;-75
2023/04/23 11:24:31;;;;;;;5.78;2.13;;;;;;;;;;5008773;28;20042;-73
2023/04/23 11:27:07;;;;;;;7.93;2.58;;;;;;;;;;5007111;28;20505;-76
2023/04/23 11:29:42;;;;;;;7.25;2.55;;;;;;;;;;5008667;28;20057;-78
2023/04/23 11:32:16;;;;;;;9.95;2.55;;;;;;;;;;5008286;28;20053;-74
2023/04/23 11:34:49;;;;;;;6.22;2.20;;;;;;;;;;5008625;28;20049;-77
2023/04/23 11:37:20;;;;;;;2.63;1.73;;;;;;;;;;5008365;28;20051;-74
2023/04/23 11:39:50;;;;;;;3.78;1.73;;;;;;;;;;5008815;28;20053;-76
2023/04/23 11:42:22;;;;;;;4.03;2.42;;;;;;;;;;5006718;28;20049;-73
2023/04/23 11:44:52;;;;;;;2.35;1.20;;;;;;;;;;5022760;28;20058;-78
2023/04/23 11:47:25;;;;;;;3.10;1.42;;;;;;;;;;5007823;28;20595;-76
2023/04/23 11:49:56;;;;;;;2.97;1.70;;;;;;;;;;5008224;28;20042;-76
2023/04/23 11:52:27;;;;;;;2.13;1.25;;;;;;;;;;5006352;28;20053;-76
2023/04/23 11:55:03;;;;;;;3.63;1.60;;;;;;;;;;5008117;28;20724;-76
2023/04/23 11:57:40;;;;;;;2.65;1.45;;;;;;;;;;5008111;28;20041;-73
2023/04/23 12:00:23;;;;;;;3.88;1.00;;;;;;;;;;5007619;28;20772;-72
2023/04/23 12:03:05;;;;;;;5.32;1.38;;;;;;;;;;5007775;28;20050;-74
2023/04/23 12:05:41;;;;;;;2.70;1.45;;;;;;;;;;5007648;28;20053;-76
2023/04/23 12:08:15;;;;;;;4.07;1.67;;;;;;;;;;5007818;28;20045;-75
2023/04/23 12:10:51;;;;;;;6.43;1.20;;;;;;;;;;5007830;28;20050;-74
2023/04/23 12:13:30;;;;;;;6.05;1.23;;;;;;;;;;5008165;28;20073;-75
2023/04/23 12:16:03;;;;;;;3.60;1.13;;;;;;;;;;5007423;28;20512;-76
2023/04/23 12:18:40;;;;;;;3.55;1.10;;;;;;;;;;5006545;28;20046;-73
2023/04/23 12:21:16;;;;;;;12.13;1.35;;;;;;;;;;5007515;28;20073;-75
2023/04/23 12:23:51;;;;;;;4.72;1.80;;;;;;;;;;4989847;28;20433;-78
2023/04/23 12:26:23;;;;;;;5.05;1.50;;;;;;;;;;4987925;28;20539;-72
2023/04/23 12:28:57;;;;;;;1.42;0.90;;;;;;;;;;4988745;28;20057;-73
2023/04/23 12:31:29;;;;;;;1.63;1.40;;;;;;;;;;4969176;28;20412;-70
2023/04/23 12:34:08;;;;;;;2.30;1.40;;;;;;;;;;4986800;28;20073;-71
2023/04/23 12:36:39;;;;;;;2.90;1.13;;;;;;;;;;4988013;28;20046;-72
2023/04/23 12:39:35;;;;;;;2.20;1.10;;;;;;;;;;4986821;28;20109;-75
2023/04/23 12:42:09;;;;;;;2.05;1.10;;;;;;;;;;4987575;28;20054;-73
2023/04/23 12:44:40;;;;;;;5.07;1.45;;;;;;;;;;4988289;28;20511;-77
2023/04/23 12:47:11;;;;;;;3.53;1.17;;;;;;;;;;4987751;28;20524;-74
2023/04/23 12:49:42;;;;;;;2.67;1.00;;;;;;;;;;4987223;28;20042;-72
2023/04/23 12:52:13;;;;;;;2.55;1.30;;;;;;;;;;4987692;28;20054;-73
2023/04/23 12:54:44;;;;;;;2.92;1.00;;;;;;;;;;4987054;28;20531;-71
2023/04/23 12:57:14;;;;;;;2.72;1.00;;;;;;;;;;4987684;28;20053;-73
2023/04/23 12:59:47;;;;;;;2.05;1.00;;;;;;;;;;4987226;28;20054;-72
2023/04/23 13:02:17;;;;;;;2.53;1.20;;;;;;;;;;4987417;28;20061;-73
2023/04/23 13:04:50;;;;;;;3.35;1.30;;;;;;;;;;4987232;28;20050;-73
2023/04/23 13:07:20;;;;;;;1.63;0.98;;;;;;;;;;4987025;28;20050;-72
2023/04/23 13:09:51;;;;;;;2.95;1.10;;;;;;;;;;4987254;28;20050;-72
2023/04/23 13:12:21;;;;;;;4.35;1.48;;;;;;;;;;4990120;28;20053;-73
2023/04/23 13:14:52;;;;;;;4.78;1.00;;;;;;;;;;5006734;28;20057;-71
2023/04/23 13:17:24;;;;;;;2.58;1.10;;;;;;;;;;5006919;28;20045;-73
2023/04/23 13:19:56;;;;;;;3.17;1.25;;;;;;;;;;5004933;28;20516;-73
2023/04/23 13:22:30;;;;;;;2.28;1.25;;;;;;;;;;4987117;28;20045;-72
2023/04/23 13:25:01;;;;;;;1.02;0.88;;;;;;;;;;4986808;28;20077;-73
2023/04/23 13:27:31;;;;;;;3.40;1.10;;;;;;;;;;4986803;28;20493;-72
2023/04/23 13:30:03;;;;;;;5.28;1.20;;;;;;;;;;4986465;28;20042;-71
2023/04/23 13:32:34;;;;;;;2.10;1.20;;;;;;;;;;4986917;28;20421;-72
2023/04/23 13:35:06;;;;;;;3.22;1.20;;;;;;;;;;4987112;28;20049;-72
2023/04/23 13:37:40;;;;;;;2.08;0.82;;;;;;;;;;4985986;28;20046;-72
2023/04/23 13:40:10;;;;;;;5.63;1.80;;;;;;;;;;4986442;28;20062;-72
2023/04/23 13:42:41;;;;;;;2.17;1.00;;;;;;;;;;4985628;28;20061;-72
2023/04/23 13:45:12;;;;;;;3.00;1.02;;;;;;;;;;4986246;28;20046;-71
2023/04/23 13:47:43;;;;;;;4.88;1.02;;;;;;;;;;4986767;28;20046;-72
2023/04/23 13:50:13;;;;;;;4.72;0.95;;;;;;;;;;4986669;28;20057;-72
2023/04/23 13:52:44;;;;;;;6.00;1.10;;;;;;;;;;4969464;28;20057;-72
2023/04/23 13:55:15;;;;;;;2.70;0.95;;;;;;;;;;4986200;28;20053;-72
2023/04/23 13:57:47;;;;;;;4.85;0.95;;;;;;;;;;4986259;28;20053;-71
2023/04/23 14:00:17;;;;;;;4.57;1.08;;;;;;;;;;4986652;28;20058;-72
2023/04/23 14:02:49;;;;;;;3.88;0.90;;;;;;;;;;4985689;28;20046;-72
2023/04/23 14:05:20;;;;;;;5.68;1.00;;;;;;;;;;4985472;28;20805;-73
2023/04/23 14:07:50;;;;;;;4.72;1.17;;;;;;;;;;4985114;28;20052;-76
2023/04/23 14:10:21;;;;;;;3.55;1.52;;;;;;;;;;4984407;28;20054;-73
2023/04/23 14:12:53;;;;;;;6.60;1.25;;;;;;;;;;4985714;28;20053;-71
2023/04/23 14:15:23;;;;;;;1.55;1.08;;;;;;;;;;4985899;28;20046;-74
2023/04/23 14:17:55;;;;;;;3.42;1.17;;;;;;;;;;4985395;28;20060;-76
2023/04/23 14:20:25;;;;;;;3.53;1.77;;;;;;;;;;4986000;28;20054;-72
2023/04/23 14:23:01;;;;;;;3.47;1.17;;;;;;;;;;4991312;28;20042;-70
2023/04/23 14:25:39;;;;;;;3.20;1.52;;;;;;;;;;4995420;28;20050;-72
2023/04/23 14:28:40;;;;;;;3.55;1.70;;;;;;;;;;4998112;28;20046;-71
2023/04/23 14:31:10;;;;;;;3.60;1.65;;;;;;;;;;4973622;28;20065;-73
2023/04/23 14:33:41;;;;;;;2.35;1.60;;;;;;;;;;4985888;28;20077;-72
2023/04/23 14:36:12;;;;;;;6.57;2.05;;;;;;;;;;4983940;28;20050;-73
2023/04/23 14:38:42;;;;;;;6.25;1.63;;;;;;;;;;4988896;28;20073;-70
2023/04/23 14:41:13;;;;;;;4.95;1.40;;;;;;;;;;5003091;28;20072;-76
2023/04/23 14:43:43;;;;;;;3.65;1.50;;;;;;;;;;5002655;28;20046;-72
2023/04/23 14:46:13;;;;;;;2.15;1.13;;;;;;;;;;4987932;28;20072;-73
2023/04/23 14:48:45;;;;;;;4.05;1.60;;;;;;;;;;4974923;28;20050;-72
2023/04/23 14:51:17;;;;;;;3.72;1.60;;;;;;;;;;4970295;28;20390;-72
2023/04/23 14:53:47;;;;;;;4.07;2.33;;;;;;;;;;4983489;28;20053;-73
2023/04/23 14:56:18;;;;;;;7.82;1.70;;;;;;;;;;4991468;28;20045;-73
2023/04/23 14:58:49;;;;;;;4.45;1.05;;;;;;;;;;4990739;28;20073;-72
2023/04/23 15:01:19;;;;;;;3.58;1.02;;;;;;;;;;5007252;28;20046;-72
2023/04/23 15:03:52;;;;;;;7.55;1.50;;;;;;;;;;5008627;28;20441;-73
2023/04/23 15:06:24;;;;;;;3.92;1.65;;;;;;;;;;5008813;28;20050;-71
2023/04/23 15:08:55;;;;;;;4.70;2.20;;;;;;;;;;5009059;28;20049;-72
2023/04/23 15:11:26;;;;;;;3.33;1.98;;;;;;;;;;5008878;28;20421;-71
2023/04/23 15:14:20;;;;;;;4.45;1.42;;;;;;;;;;5007482;28;20061;-71
2023/04/23 15:16:51;;;;;;;5.05;1.58;;;;;;;;;;5008110;28;20049;-72